Time;durP1;ratioP1;P1;durP2;ratioP2;P2;SDS_P1;SDS_P2;PMS_P1;PMS_P2;Temp;Humidity;BMP_temperature;BMP_pressure;BME280_temperature;BME280_humidity;BME280_pressure;Samples;Min_cycle;Max_cycle;Signal;HPM_P1;HPM_P2
2020/12/06 00:00:58;;;;;;;0.45;0.45;;;1.60;99.90;;;;;;5112173;28;20218;-70
2020/12/06 00:03:25;;;;;;;2.92;2.78;;;1.70;99.90;;;;;;5111911;28;20194;-70
2020/12/06 00:05:50;;;;;;;3.05;1.88;;;1.70;99.90;;;;;;5110951;28;20163;-69
2020/12/06 00:08:16;;;;;;;2.40;1.80;;;1.70;99.90;;;;;;5112006;28;20282;-70
2020/12/06 00:10:42;;;;;;;1.75;1.70;;;1.70;99.90;;;;;;5110635;28;20227;-69
2020/12/06 00:13:07;;;;;;;0.95;0.80;;;1.70;99.90;;;;;;5111940;28;20148;-70
2020/12/06 00:15:33;;;;;;;2.42;2.33;;;1.70;99.90;;;;;;5110606;28;20163;-70
2020/12/06 00:17:59;;;;;;;1.45;1.45;;;1.60;99.90;;;;;;5107284;28;20215;-70
2020/12/06 00:20:25;;;;;;;0.82;0.82;;;1.60;99.90;;;;;;5102595;28;20167;-70
2020/12/06 00:22:51;;;;;;;1.35;1.33;;;1.50;99.90;;;;;;5110224;28;20191;-69
2020/12/06 00:25:17;;;;;;;3.05;2.90;;;1.50;99.90;;;;;;5110582;28;20168;-70
2020/12/06 00:27:43;;;;;;;1.98;1.88;;;1.50;99.90;;;;;;5102325;28;20203;-70
2020/12/06 00:30:09;;;;;;;2.22;2.13;;;1.40;99.90;;;;;;5107298;28;20172;-70
2020/12/06 00:32:36;;;;;;;6.22;1.58;;;1.50;99.90;;;;;;5091383;28;20164;-69
2020/12/06 00:35:02;;;;;;;2.08;1.98;;;1.60;99.90;;;;;;5094635;28;20159;-69
2020/12/06 00:37:28;;;;;;;1.70;1.65;;;1.70;99.90;;;;;;5110112;28;20218;-69
2020/12/06 00:39:54;;;;;;;1.73;1.65;;;1.70;99.90;;;;;;5111219;28;20218;-70
2020/12/06 00:42:20;;;;;;;3.55;1.70;;;1.70;99.90;;;;;;5111369;28;20152;-70
2020/12/06 00:44:46;;;;;;;1.48;1.40;;;1.70;99.90;;;;;;5097793;28;20175;-69
2020/12/06 00:47:12;;;;;;;4.53;4.13;;;1.70;99.90;;;;;;5090970;28;20156;-70
2020/12/06 00:49:37;;;;;;;3.95;3.75;;;1.70;99.90;;;;;;5091013;28;20193;-70
2020/12/06 00:52:03;;;;;;;2.67;2.53;;;1.60;99.90;;;;;;5089585;28;20180;-70
2020/12/06 00:54:29;;;;;;;2.20;2.10;;;1.60;99.90;;;;;;5090711;28;20168;-69
2020/12/06 00:56:56;;;;;;;3.10;2.35;;;1.70;99.90;;;;;;5092588;28;20184;-70
2020/12/06 00:59:23;;;;;;;6.00;5.00;;;1.60;99.90;;;;;;5101931;28;20167;-70
2020/12/06 01:01:49;;;;;;;2.85;2.67;;;1.60;99.90;;;;;;5108953;28;20175;-70
2020/12/06 01:04:15;;;;;;;3.80;3.42;;;1.60;99.90;;;;;;5110899;28;20195;-69
2020/12/06 01:06:41;;;;;;;2.00;1.90;;;1.50;99.90;;;;;;5092975;28;20542;-71
2020/12/06 01:09:07;;;;;;;1.98;1.60;;;1.60;99.90;;;;;;5090498;28;20156;-69
2020/12/06 01:11:33;;;;;;;1.30;1.30;;;1.60;99.90;;;;;;5109550;28;20166;-70
2020/12/06 01:13:59;;;;;;;0.68;0.68;;;1.70;99.90;;;;;;5103257;28;20196;-71
2020/12/06 01:16:25;;;;;;;1.55;1.55;;;1.80;99.90;;;;;;5090187;28;20186;-70
2020/12/06 01:18:51;;;;;;;2.92;1.98;;;1.80;99.90;;;;;;5089198;28;20671;-70
2020/12/06 01:21:17;;;;;;;2.38;2.28;;;1.90;99.90;;;;;;5090067;28;20191;-70
2020/12/06 01:23:43;;;;;;;1.42;1.40;;;1.90;99.90;;;;;;5089976;28;20196;-70
2020/12/06 01:26:12;;;;;;;2.58;2.35;;;1.90;99.90;;;;;;5090239;28;20160;-70
2020/12/06 01:28:38;;;;;;;1.52;1.52;;;1.90;99.90;;;;;;5090187;28;20152;-70
2020/12/06 01:31:06;;;;;;;1.45;1.42;;;1.90;99.90;;;;;;5090126;28;20187;-70
2020/12/06 01:33:32;;;;;;;1.58;1.58;;;1.90;99.90;;;;;;5090118;28;20175;-70
2020/12/06 01:35:58;;;;;;;2.40;1.88;;;2.00;99.90;;;;;;5089969;28;20176;-69
2020/12/06 01:38:24;;;;;;;0.88;0.88;;;1.80;99.90;;;;;;5090029;28;20184;-69
2020/12/06 01:40:50;;;;;;;4.28;3.83;;;1.90;99.90;;;;;;5089735;28;20633;-70
2020/12/06 01:43:16;;;;;;;1.83;1.83;;;1.80;99.90;;;;;;5089974;28;20190;-69
2020/12/06 01:45:42;;;;;;;2.40;2.08;;;1.70;99.90;;;;;;5089883;28;20210;-74
2020/12/06 01:48:09;;;;;;;2.33;2.22;;;1.80;99.90;;;;;;5090008;28;20164;-74
2020/12/06 01:50:39;;;;;;;2.50;2.40;;;1.80;99.90;;;;;;5088332;28;20222;-74
2020/12/06 01:53:07;;;;;;;1.65;1.55;;;1.80;99.90;;;;;;5089745;28;20522;-74
2020/12/06 01:55:33;;;;;;;1.15;1.15;;;1.60;99.90;;;;;;5089786;28;20219;-74
2020/12/06 01:58:09;;;;;;;1.73;1.73;;;1.60;99.90;;;;;;5088476;28;20175;-74
2020/12/06 02:00:38;;;;;;;2.42;2.33;;;1.60;99.90;;;;;;5089525;28;20201;-74
2020/12/06 02:03:05;;;;;;;0.65;0.65;;;1.60;99.90;;;;;;5089481;28;20188;-74
2020/12/06 02:05:33;;;;;;;1.23;1.23;;;1.40;99.90;;;;;;5089183;28;20632;-74
2020/12/06 02:08:00;;;;;;;0.82;0.82;;;1.30;99.90;;;;;;5109980;28;20546;-74
2020/12/06 02:10:28;;;;;;;0.20;0.20;;;1.20;99.90;;;;;;5108455;28;20154;-74
2020/12/06 02:12:55;;;;;;;1.65;1.58;;;1.20;99.90;;;;;;5109736;28;20160;-74
2020/12/06 02:15:21;;;;;;;2.22;2.08;;;1.20;99.90;;;;;;5108356;28;20178;-74
2020/12/06 02:17:48;;;;;;;1.27;1.27;;;1.30;99.90;;;;;;5109585;28;20191;-74
2020/12/06 02:20:15;;;;;;;2.10;2.00;;;1.20;99.90;;;;;;5109611;28;20151;-74
2020/12/06 02:22:40;;;;;;;1.70;1.65;;;1.20;99.90;;;;;;5108381;28;20206;-74
2020/12/06 02:25:06;;;;;;;1.38;1.30;;;1.20;99.90;;;;;;5108379;28;20243;-74
2020/12/06 02:27:32;;;;;;;1.42;1.23;;;1.20;99.90;;;;;;5108548;28;20290;-75
2020/12/06 02:29:58;;;;;;;3.17;2.97;;;1.20;99.90;;;;;;5109635;28;20196;-75
2020/12/06 02:32:24;;;;;;;3.80;3.08;;;1.20;99.90;;;;;;5108584;28;20174;-75
2020/12/06 02:34:50;;;;;;;2.55;2.25;;;1.10;99.90;;;;;;5109836;28;20166;-75
2020/12/06 02:37:16;;;;;;;1.63;1.58;;;1.20;99.90;;;;;;5109544;28;20190;-74
2020/12/06 02:39:43;;;;;;;2.15;2.05;;;1.10;99.90;;;;;;5109385;28;20291;-75
2020/12/06 02:42:08;;;;;;;0.98;0.98;;;1.10;99.90;;;;;;5109432;28;20268;-75
2020/12/06 02:44:34;;;;;;;1.55;1.55;;;1.10;99.90;;;;;;5109476;28;20183;-75
2020/12/06 02:47:00;;;;;;;3.30;2.85;;;1.00;99.90;;;;;;5108062;28;20198;-75
2020/12/06 02:49:29;;;;;;;2.88;2.25;;;1.10;99.90;;;;;;5109467;28;20156;-75
2020/12/06 02:51:55;;;;;;;0.52;0.52;;;1.10;99.90;;;;;;5109494;28;20160;-75
2020/12/06 02:54:21;;;;;;;1.58;1.48;;;1.00;99.90;;;;;;5109390;28;20160;-75
2020/12/06 02:56:47;;;;;;;2.20;2.10;;;1.00;99.90;;;;;;5109257;28;20191;-75
2020/12/06 02:59:13;;;;;;;2.25;2.15;;;0.80;99.90;;;;;;5109406;28;20164;-75
2020/12/06 03:01:39;;;;;;;0.35;0.35;;;0.90;99.90;;;;;;5109263;28;20174;-75
2020/12/06 03:04:04;;;;;;;3.58;3.35;;;0.80;99.90;;;;;;5107894;28;20217;-75
2020/12/06 03:06:30;;;;;;;1.55;1.48;;;0.70;99.90;;;;;;5109315;28;20197;-75
2020/12/06 03:08:56;;;;;;;1.55;1.50;;;0.60;99.90;;;;;;5109222;28;20160;-75
2020/12/06 03:11:25;;;;;;;0.30;0.30;;;0.80;99.90;;;;;;5109297;28;20592;-75
2020/12/06 03:13:52;;;;;;;0.43;0.43;;;0.80;99.90;;;;;;5109222;28;20159;-74
2020/12/06 03:16:18;;;;;;;2.47;2.38;;;1.00;99.90;;;;;;5109550;28;20274;-74
2020/12/06 03:18:44;;;;;;;1.15;1.13;;;0.90;99.90;;;;;;5113277;28;20163;-75
2020/12/06 03:21:10;;;;;;;2.00;1.95;;;0.90;99.90;;;;;;5111781;28;20168;-75
2020/12/06 03:23:36;;;;;;;6.75;3.45;;;0.90;99.90;;;;;;5112879;28;20674;-75
2020/12/06 03:26:02;;;;;;;0.30;0.30;;;1.00;99.90;;;;;;5111695;28;20212;-74
2020/12/06 03:28:28;;;;;;;1.63;1.52;;;0.90;99.90;;;;;;5112994;28;20522;-75
2020/12/06 03:30:54;;;;;;;1.63;1.52;;;0.90;99.90;;;;;;5112885;28;20166;-75
2020/12/06 03:33:20;;;;;;;1.85;1.75;;;1.00;99.90;;;;;;5112872;28;20156;-75
2020/12/06 03:35:46;;;;;;;0.95;0.95;;;0.90;99.90;;;;;;5112775;28;20560;-75
2020/12/06 03:38:12;;;;;;;2.60;2.45;;;0.90;99.90;;;;;;5111456;28;20262;-75
2020/12/06 03:40:38;;;;;;;0.50;0.50;;;0.90;99.90;;;;;;5111122;28;20258;-74
2020/12/06 03:43:04;;;;;;;0.82;0.82;;;0.80;99.90;;;;;;5112381;28;20183;-74
2020/12/06 03:45:30;;;;;;;2.15;1.95;;;0.80;99.90;;;;;;5111303;28;20185;-74
2020/12/06 03:47:56;;;;;;;2.72;2.60;;;0.90;99.90;;;;;;5112413;28;20187;-76
2020/12/06 03:50:23;;;;;;;1.33;1.20;;;0.90;99.90;;;;;;5111286;28;20171;-75
2020/12/06 03:52:50;;;;;;;1.55;1.50;;;0.80;99.90;;;;;;5110986;28;20171;-74
2020/12/06 03:55:16;;;;;;;2.58;2.40;;;0.70;99.90;;;;;;5112418;28;20178;-75
2020/12/06 03:57:42;;;;;;;2.20;2.08;;;0.60;99.90;;;;;;5112324;28;20192;-75
2020/12/06 04:00:09;;;;;;;2.95;2.65;;;0.60;99.90;;;;;;5112314;28;20239;-75
2020/12/06 04:02:35;;;;;;;2.20;1.77;;;0.60;99.90;;;;;;5112024;28;20174;-75
2020/12/06 04:05:01;;;;;;;1.75;1.73;;;0.70;99.90;;;;;;5112311;28;20178;-75
2020/12/06 04:07:27;;;;;;;5.18;4.80;;;0.70;99.90;;;;;;5112053;28;20194;-75
2020/12/06 04:09:53;;;;;;;0.70;0.70;;;0.60;99.90;;;;;;5112098;28;20160;-75
2020/12/06 04:12:19;;;;;;;2.13;2.03;;;0.60;99.90;;;;;;5112185;28;20164;-75
2020/12/06 04:14:45;;;;;;;1.77;1.67;;;0.60;99.90;;;;;;5111929;28;20155;-75
2020/12/06 04:17:11;;;;;;;0.85;0.85;;;0.60;99.90;;;;;;5112009;28;20187;-75
2020/12/06 04:19:37;;;;;;;1.83;1.73;;;0.60;99.90;;;;;;5111820;28;20164;-75
2020/12/06 04:22:06;;;;;;;1.80;1.70;;;0.50;99.90;;;;;;5110670;28;20178;-75
2020/12/06 04:24:35;;;;;;;1.23;1.23;;;0.50;99.90;;;;;;5111859;28;20194;-75
2020/12/06 04:27:01;;;;;;;1.10;1.05;;;0.50;99.90;;;;;;5109965;28;20250;-75
2020/12/06 04:29:27;;;;;;;1.08;0.88;;;0.50;99.90;;;;;;5111766;28;20179;-75
2020/12/06 04:31:53;;;;;;;3.45;3.25;;;0.60;99.90;;;;;;5111638;28;20163;-75
2020/12/06 04:34:19;;;;;;;0.50;0.50;;;0.50;99.90;;;;;;5111498;28;20637;-75
2020/12/06 04:36:45;;;;;;;2.65;2.55;;;0.40;99.90;;;;;;5110081;28;20199;-75
2020/12/06 04:39:11;;;;;;;1.27;1.17;;;0.40;99.90;;;;;;5111322;28;20251;-75
2020/12/06 04:41:37;;;;;;;1.85;1.75;;;0.30;99.90;;;;;;5111540;28;20159;-75
2020/12/06 04:44:03;;;;;;;1.02;1.02;;;0.30;99.90;;;;;;5111435;28;20195;-75
2020/12/06 04:46:37;;;;;;;2.78;2.63;;;0.40;99.90;;;;;;5109972;28;20195;-74
2020/12/06 04:49:06;;;;;;;3.40;3.22;;;0.30;99.90;;;;;;5111421;28;20158;-75
2020/12/06 04:51:45;;;;;;;5.35;4.03;;;0.30;99.90;;;;;;5110010;28;20182;-75
2020/12/06 04:54:11;;;;;;;1.27;1.17;;;0.40;99.90;;;;;;5111385;28;20191;-75
2020/12/06 04:56:38;;;;;;;0.52;0.52;;;0.40;99.90;;;;;;5111230;28;20195;-75
2020/12/06 04:59:06;;;;;;;0.63;0.63;;;0.30;99.90;;;;;;5111209;28;20167;-76
2020/12/06 05:01:39;;;;;;;1.58;1.55;;;0.40;99.90;;;;;;5111001;28;20179;-76
2020/12/06 05:04:15;;;;;;;0.93;0.93;;;0.50;99.90;;;;;;5110860;28;20190;-75
2020/12/06 05:06:44;;;;;;;5.75;2.78;;;0.60;99.90;;;;;;5109599;28;20663;-75
2020/12/06 05:09:12;;;;;;;1.08;1.08;;;0.60;99.90;;;;;;5111093;28;20162;-75
2020/12/06 05:11:40;;;;;;;1.75;1.48;;;0.60;99.90;;;;;;5111017;28;20515;-75
2020/12/06 05:14:06;;;;;;;0.63;0.63;;;0.60;99.90;;;;;;5110762;28;20163;-75
2020/12/06 05:16:38;;;;;;;0.88;0.88;;;0.60;99.90;;;;;;5110777;28;20354;-75
2020/12/06 05:19:05;;;;;;;1.60;1.50;;;0.70;99.90;;;;;;5110752;28;20167;-75
2020/12/06 05:21:36;;;;;;;2.50;1.80;;;0.80;99.90;;;;;;5110698;28;20647;-75
2020/12/06 05:24:03;;;;;;;2.80;2.63;;;0.90;99.90;;;;;;5109493;28;20290;-75
2020/12/06 05:26:30;;;;;;;1.77;1.67;;;1.00;99.90;;;;;;5109209;28;20191;-75
2020/12/06 05:28:57;;;;;;;0.47;0.45;;;1.10;99.90;;;;;;5109016;28;20174;-75
2020/12/06 05:31:24;;;;;;;2.65;1.50;;;1.10;99.90;;;;;;5110410;28;20218;-75
2020/12/06 05:33:51;;;;;;;2.35;2.20;;;1.10;99.90;;;;;;5110702;28;20166;-75
2020/12/06 05:36:17;;;;;;;1.45;1.30;;;1.10;99.90;;;;;;5110330;28;20294;-75
2020/12/06 05:38:44;;;;;;;5.18;3.80;;;1.20;99.90;;;;;;5109883;28;20159;-74
2020/12/06 05:41:10;;;;;;;1.30;1.23;;;1.20;99.90;;;;;;5108673;28;20175;-75
2020/12/06 05:43:37;;;;;;;3.28;3.08;;;1.20;99.90;;;;;;5110261;28;20648;-76
2020/12/06 05:46:08;;;;;;;0.40;0.40;;;1.30;99.90;;;;;;5108785;28;20668;-76
2020/12/06 05:48:35;;;;;;;0.82;0.82;;;1.30;99.90;;;;;;5110407;28;20151;-75
2020/12/06 05:51:01;;;;;;;2.28;2.20;;;1.40;99.90;;;;;;5108847;28;20167;-76
2020/12/06 05:53:28;;;;;;;0.73;0.73;;;1.50;99.90;;;;;;5110242;28;20155;-74
2020/12/06 05:56:17;;;;;;;2.30;2.20;;;1.40;99.90;;;;;;5110107;28;20194;-75
2020/12/06 05:58:44;;;;;;;3.95;3.67;;;1.50;99.90;;;;;;5095886;28;20191;-75
2020/12/06 06:01:12;;;;;;;0.73;0.73;;;1.50;99.90;;;;;;5107261;28;20178;-75
2020/12/06 06:03:42;;;;;;;0.65;0.65;;;1.50;99.90;;;;;;5089627;28;20678;-75
2020/12/06 06:06:20;;;;;;;1.45;1.45;;;1.50;99.90;;;;;;5097458;28;20215;-75
2020/12/06 06:08:49;;;;;;;0.45;0.45;;;1.50;99.90;;;;;;5110018;28;20155;-75
2020/12/06 06:11:20;;;;;;;1.23;1.23;;;1.50;99.90;;;;;;5108414;28;20174;-75
2020/12/06 06:14:01;;;;;;;1.40;1.40;;;1.50;99.90;;;;;;5107970;28;20171;-75
2020/12/06 06:16:29;;;;;;;4.43;4.13;;;1.50;99.90;;;;;;5089512;28;20237;-75
2020/12/06 06:18:58;;;;;;;0.73;0.73;;;1.60;99.90;;;;;;5091458;28;20160;-75
2020/12/06 06:21:31;;;;;;;2.17;1.98;;;1.60;99.90;;;;;;5109374;28;20181;-75
2020/12/06 06:24:00;;;;;;;4.60;4.20;;;1.70;99.90;;;;;;5109617;28;20180;-75
2020/12/06 06:26:30;;;;;;;1.17;1.17;;;1.70;99.90;;;;;;5109533;28;20151;-75
2020/12/06 06:28:56;;;;;;;1.00;1.00;;;1.70;99.90;;;;;;5109422;28;20631;-75
2020/12/06 06:31:22;;;;;;;0.70;0.70;;;1.70;99.90;;;;;;5109617;28;20158;-75
2020/12/06 06:33:49;;;;;;;0.35;0.35;;;1.70;99.90;;;;;;5109656;28;20163;-75
2020/12/06 06:36:20;;;;;;;0.38;0.38;;;1.70;99.90;;;;;;5109527;28;20175;-75
2020/12/06 06:38:47;;;;;;;3.65;3.45;;;1.70;99.90;;;;;;5109153;28;20151;-74
2020/12/06 06:41:15;;;;;;;3.03;2.75;;;1.70;99.90;;;;;;5109543;28;20169;-75
2020/12/06 06:43:42;;;;;;;1.70;1.63;;;1.70;99.90;;;;;;5108039;28;20199;-75
2020/12/06 06:46:10;;;;;;;0.40;0.40;;;1.70;99.90;;;;;;5109426;28;20164;-75
2020/12/06 06:48:36;;;;;;;1.17;1.17;;;1.70;99.90;;;;;;5109356;28;20154;-75
2020/12/06 06:51:04;;;;;;;0.77;0.77;;;1.80;99.90;;;;;;5109752;28;20190;-75
2020/12/06 06:53:30;;;;;;;0.50;0.50;;;1.80;99.90;;;;;;5113656;28;20654;-75
2020/12/06 06:55:57;;;;;;;1.35;1.35;;;1.70;99.90;;;;;;5113593;28;20159;-75
2020/12/06 06:58:28;;;;;;;0.40;0.40;;;1.80;99.90;;;;;;5113559;28;20159;-75
2020/12/06 07:01:23;;;;;;;1.92;1.80;;;1.80;99.90;;;;;;5113435;28;20191;-75
2020/12/06 07:03:51;;;;;;;0.52;0.52;;;1.90;99.90;;;;;;5111931;28;20205;-75
2020/12/06 07:06:48;;;;;;;1.45;1.45;;;1.80;99.90;;;;;;5113339;28;20519;-75
2020/12/06 07:09:28;;;;;;;3.75;3.55;;;1.90;99.90;;;;;;5113322;28;20187;-75
2020/12/06 07:11:56;;;;;;;1.15;1.15;;;1.90;99.90;;;;;;5112000;28;20178;-75
2020/12/06 07:14:24;;;;;;;1.67;1.63;;;1.80;99.90;;;;;;5113119;28;20195;-75
2020/12/06 07:16:55;;;;;;;1.42;1.35;;;1.90;99.90;;;;;;5113101;28;20181;-75
2020/12/06 07:19:22;;;;;;;4.43;4.03;;;1.90;99.90;;;;;;5111702;28;20195;-75
2020/12/06 07:21:50;;;;;;;0.75;0.75;;;1.90;99.90;;;;;;5113198;28;20182;-75
2020/12/06 07:24:18;;;;;;;2.13;1.50;;;1.90;99.90;;;;;;5112861;28;20179;-75
2020/12/06 07:26:47;;;;;;;1.80;1.75;;;1.90;99.90;;;;;;5112893;28;20152;-75
2020/12/06 07:29:14;;;;;;;2.25;2.15;;;1.70;99.90;;;;;;5112923;28;20250;-75
2020/12/06 07:31:40;;;;;;;1.48;1.48;;;1.70;99.90;;;;;;5113051;28;20151;-75
2020/12/06 07:34:07;;;;;;;1.60;1.50;;;1.90;99.90;;;;;;5112676;28;20162;-75
2020/12/06 07:36:35;;;;;;;3.33;3.13;;;1.90;99.90;;;;;;5112801;28;20251;-75
2020/12/06 07:39:13;;;;;;;1.27;0.75;;;2.00;99.90;;;;;;5111021;28;20569;-75
2020/12/06 07:41:49;;;;;;;0.60;0.60;;;2.10;99.90;;;;;;5111378;28;20179;-75
2020/12/06 07:44:16;;;;;;;1.48;1.38;;;2.10;99.90;;;;;;5111126;28;20194;-75
2020/12/06 07:46:43;;;;;;;2.17;1.98;;;2.20;99.90;;;;;;5110978;28;20167;-75
2020/12/06 07:49:09;;;;;;;1.23;1.20;;;2.30;99.90;;;;;;5112408;28;20198;-74
2020/12/06 07:51:36;;;;;;;2.40;2.13;;;2.30;99.90;;;;;;5112573;28;20151;-75
2020/12/06 07:54:03;;;;;;;2.15;2.05;;;2.40;99.90;;;;;;5112295;28;20202;-75
2020/12/06 07:56:30;;;;;;;1.42;1.15;;;2.40;99.90;;;;;;5111157;28;20248;-75
2020/12/06 07:59:14;;;;;;;2.35;2.15;;;2.50;99.90;;;;;;5112173;28;20160;-75
2020/12/06 08:01:42;;;;;;;1.88;1.77;;;2.60;99.90;;;;;;5111779;28;20163;-74
2020/12/06 08:04:13;;;;;;;1.45;1.45;;;2.60;99.90;;;;;;5111612;28;20187;-75
2020/12/06 08:06:45;;;;;;;1.35;1.35;;;2.60;99.90;;;;;;5112130;28;20156;-75
2020/12/06 08:09:13;;;;;;;0.90;0.90;;;2.50;99.90;;;;;;5110745;28;20216;-75
2020/12/06 08:11:49;;;;;;;3.92;2.30;;;2.50;99.90;;;;;;5111552;28;20209;-75
2020/12/06 08:14:21;;;;;;;2.88;2.20;;;2.70;99.90;;;;;;5092212;28;20182;-74
2020/12/06 08:17:01;;;;;;;2.55;2.35;;;2.90;99.90;;;;;;5104339;28;20178;-75
2020/12/06 08:19:28;;;;;;;4.50;3.80;;;2.90;99.90;;;;;;5098747;28;20221;-74
2020/12/06 08:22:01;;;;;;;1.67;1.58;;;2.90;99.90;;;;;;5100501;28;20217;-74
2020/12/06 08:24:30;;;;;;;1.80;1.70;;;2.90;99.90;;;;;;5099821;28;20199;-74
2020/12/06 08:26:57;;;;;;;2.53;2.42;;;2.90;99.90;;;;;;5099926;28;20755;-74
2020/12/06 08:29:43;;;;;;;8.95;5.25;;;2.70;99.90;;;;;;5100968;28;20215;-74
2020/12/06 08:32:10;;;;;;;4.00;3.75;;;2.70;99.90;;;;;;5099503;28;20171;-74
2020/12/06 08:34:37;;;;;;;3.33;3.13;;;2.70;99.90;;;;;;5101181;28;20191;-75
2020/12/06 08:37:16;;;;;;;0.63;0.63;;;2.60;99.90;;;;;;5109833;28;20205;-74
2020/12/06 08:39:42;;;;;;;2.05;1.95;;;2.70;99.90;;;;;;5109862;28;20233;-74
2020/12/06 08:42:20;;;;;;;2.72;2.63;;;2.80;99.90;;;;;;5111371;28;20175;-75
2020/12/06 08:45:05;;;;;;;0.52;0.52;;;2.90;99.90;;;;;;5104189;28;20200;-75
2020/12/06 08:47:43;;;;;;;3.55;0.95;;;2.90;99.90;;;;;;5109816;28;20222;-75
2020/12/06 08:50:14;;;;;;;1.63;1.52;;;3.00;99.90;;;;;;5108035;28;20251;-74
2020/12/06 08:52:42;;;;;;;2.47;2.30;;;3.10;99.90;;;;;;5106668;28;20294;-74
2020/12/06 08:55:27;;;;;;;1.48;1.48;;;3.20;99.90;;;;;;5109888;28;20163;-74
2020/12/06 08:57:54;;;;;;;2.20;2.10;;;3.30;99.90;;;;;;5099643;28;20230;-74
2020/12/06 09:00:20;;;;;;;0.95;0.95;;;3.30;99.90;;;;;;5103715;28;20214;-74
2020/12/06 09:02:46;;;;;;;3.45;3.10;;;3.30;99.90;;;;;;5093685;28;20160;-74
2020/12/06 09:05:12;;;;;;;0.63;0.63;;;3.40;99.90;;;;;;5104233;28;20170;-74
2020/12/06 09:07:42;;;;;;;0.85;0.85;;;3.40;99.90;;;;;;5094976;28;20172;-74
2020/12/06 09:10:09;;;;;;;0.60;0.60;;;3.50;99.90;;;;;;5110060;28;20179;-75
2020/12/06 09:12:36;;;;;;;1.52;1.48;;;3.60;99.90;;;;;;5102047;28;20167;-75
2020/12/06 09:15:04;;;;;;;2.38;2.28;;;3.60;99.90;;;;;;5103228;28;20183;-76
2020/12/06 09:17:29;;;;;;;1.13;1.13;;;3.70;99.90;;;;;;5109696;28;20175;-75
2020/12/06 09:19:55;;;;;;;2.17;2.08;;;3.70;99.90;;;;;;5109786;28;20187;-74
2020/12/06 09:22:21;;;;;;;1.77;1.67;;;3.80;99.90;;;;;;5110317;28;20159;-75
2020/12/06 09:24:47;;;;;;;1.77;1.67;;;3.80;99.90;;;;;;5105545;28;20194;-75
2020/12/06 09:27:13;;;;;;;4.80;2.55;;;3.80;99.90;;;;;;5103573;28;20178;-75
2020/12/06 09:29:39;;;;;;;2.83;2.63;;;3.70;99.90;;;;;;5102729;28;20196;-74
2020/12/06 09:32:05;;;;;;;1.58;1.48;;;3.80;99.90;;;;;;5100983;28;20163;-75
2020/12/06 09:34:31;;;;;;;0.60;0.60;;;4.00;99.90;;;;;;5095293;28;20178;-75
2020/12/06 09:36:57;;;;;;;1.25;1.25;;;4.20;99.90;;;;;;5105196;28;20167;-75
2020/12/06 09:39:22;;;;;;;1.15;1.13;;;4.40;99.90;;;;;;5094863;28;20244;-75
2020/12/06 09:41:48;;;;;;;0.80;0.80;;;4.50;99.90;;;;;;5104157;28;20184;-75
2020/12/06 09:44:14;;;;;;;0.50;0.50;;;4.50;99.90;;;;;;5102424;28;20196;-75
2020/12/06 09:46:40;;;;;;;1.52;1.48;;;4.50;99.90;;;;;;5108542;28;20156;-75
2020/12/06 09:49:06;;;;;;;0.52;0.52;;;4.50;99.90;;;;;;5099900;28;20198;-74
2020/12/06 09:51:32;;;;;;;1.05;1.05;;;4.60;99.90;;;;;;5107089;28;20176;-75
2020/12/06 09:53:58;;;;;;;2.05;1.95;;;4.60;99.90;;;;;;5104637;28;20197;-74
2020/12/06 09:56:29;;;;;;;0.70;0.70;;;4.70;99.90;;;;;;5109525;28;20178;-74
2020/12/06 09:58:55;;;;;;;1.02;1.00;;;4.70;99.90;;;;;;5109058;28;20218;-75
2020/12/06 10:01:24;;;;;;;1.13;1.13;;;4.70;99.90;;;;;;5108545;28;20176;-76
2020/12/06 10:03:51;;;;;;;0.50;0.50;;;4.80;99.90;;;;;;5101460;28;20647;-75
2020/12/06 10:06:27;;;;;;;1.75;1.65;;;5.00;99.90;;;;;;5109053;28;20189;-75
2020/12/06 10:08:53;;;;;;;1.92;1.83;;;5.00;99.90;;;;;;5107679;28;20478;-75
2020/12/06 10:11:20;;;;;;;3.42;1.80;;;5.10;99.90;;;;;;5106321;28;20160;-75
2020/12/06 10:13:46;;;;;;;0.60;0.60;;;5.30;99.90;;;;;;5107726;28;20179;-76
2020/12/06 10:16:14;;;;;;;1.23;1.02;;;5.40;99.90;;;;;;5109131;28;20624;-75
2020/12/06 10:18:40;;;;;;;4.88;1.27;;;5.50;99.90;;;;;;5108989;28;20189;-75
2020/12/06 10:21:07;;;;;;;1.73;1.63;;;5.50;99.90;;;;;;5109587;28;20525;-75
2020/12/06 10:23:33;;;;;;;1.48;1.48;;;5.60;99.90;;;;;;5109490;28;20589;-75
2020/12/06 10:26:00;;;;;;;0.93;0.93;;;5.60;99.90;;;;;;5109096;28;20213;-75
2020/12/06 10:28:25;;;;;;;1.88;1.77;;;5.70;99.90;;;;;;5108192;28;20301;-75
2020/12/06 10:30:51;;;;;;;1.58;1.55;;;5.70;99.90;;;;;;5109366;28;20183;-75
2020/12/06 10:33:17;;;;;;;1.50;1.50;;;5.70;99.90;;;;;;5108105;28;20179;-75
2020/12/06 10:35:44;;;;;;;3.40;2.97;;;5.70;99.90;;;;;;5109579;28;20608;-75
2020/12/06 10:38:13;;;;;;;3.50;2.90;;;5.70;99.90;;;;;;5109326;28;20545;-75
2020/12/06 10:40:39;;;;;;;1.42;1.27;;;5.70;99.90;;;;;;5108768;28;20253;-76
2020/12/06 10:43:05;;;;;;;1.05;1.05;;;5.60;99.90;;;;;;5108648;28;20246;-75
2020/12/06 10:45:34;;;;;;;1.85;1.60;;;5.50;99.90;;;;;;5109309;28;20156;-75
2020/12/06 10:48:04;;;;;;;2.83;2.63;;;5.50;99.90;;;;;;5108818;28;20167;-76
2020/12/06 10:50:30;;;;;;;2.75;2.15;;;5.50;99.90;;;;;;5108486;28;20191;-75
2020/12/06 10:52:56;;;;;;;1.15;0.90;;;5.60;99.90;;;;;;5109041;28;20193;-75
2020/12/06 10:55:24;;;;;;;3.03;2.08;;;5.50;99.90;;;;;;5108578;28;20159;-70
2020/12/06 10:57:52;;;;;;;2.67;2.40;;;5.40;99.90;;;;;;5108959;28;20185;-70
2020/12/06 11:00:18;;;;;;;1.58;1.48;;;5.40;99.90;;;;;;5106902;28;20219;-69
2020/12/06 11:02:44;;;;;;;2.85;2.75;;;5.30;99.90;;;;;;5108861;28;20163;-69
2020/12/06 11:05:10;;;;;;;5.75;5.32;;;5.20;99.90;;;;;;5107694;28;20189;-69
2020/12/06 11:07:36;;;;;;;2.47;2.28;;;5.10;99.90;;;;;;5109146;28;20160;-70
2020/12/06 11:10:02;;;;;;;4.10;3.40;;;5.20;99.90;;;;;;5108857;28;20191;-77
2020/12/06 11:12:27;;;;;;;5.82;2.80;;;5.30;99.90;;;;;;5109019;28;20159;-76
2020/12/06 11:14:53;;;;;;;0.65;0.65;;;5.10;99.90;;;;;;5107579;28;20179;-76
2020/12/06 11:17:19;;;;;;;3.10;2.88;;;5.10;99.90;;;;;;5108995;28;20169;-75
2020/12/06 11:19:45;;;;;;;2.00;1.83;;;5.10;99.90;;;;;;5107575;28;20195;-75
2020/12/06 11:22:11;;;;;;;3.47;3.17;;;5.00;99.90;;;;;;5108901;28;20160;-75
2020/12/06 11:24:37;;;;;;;1.85;1.75;;;5.10;99.90;;;;;;5105923;28;20193;-76
2020/12/06 11:27:03;;;;;;;1.90;1.80;;;5.10;99.90;;;;;;5107271;28;20190;-75
2020/12/06 11:29:29;;;;;;;1.92;1.83;;;5.00;99.90;;;;;;5108686;28;20188;-76
2020/12/06 11:31:55;;;;;;;4.40;4.10;;;5.00;99.90;;;;;;5106980;28;20163;-76
2020/12/06 11:34:21;;;;;;;2.78;1.45;;;5.00;99.90;;;;;;5107448;28;20168;-75
2020/12/06 11:36:50;;;;;;;1.45;1.45;;;5.00;99.90;;;;;;5108930;28;20163;-76
2020/12/06 11:39:16;;;;;;;5.22;4.63;;;5.00;99.90;;;;;;5112006;28;20219;-76
2020/12/06 11:41:42;;;;;;;1.38;1.02;;;4.90;99.90;;;;;;5112261;28;20227;-76
2020/12/06 11:44:08;;;;;;;1.02;1.02;;;4.90;99.90;;;;;;5112358;28;20209;-76
2020/12/06 11:46:34;;;;;;;0.50;0.50;;;5.00;99.90;;;;;;5111222;28;20171;-77
2020/12/06 11:49:01;;;;;;;1.67;1.60;;;4.90;99.90;;;;;;5112262;28;20155;-76
2020/12/06 11:51:27;;;;;;;2.53;2.42;;;4.90;99.90;;;;;;5112314;28;20174;-76
2020/12/06 11:53:53;;;;;;;1.10;1.08;;;5.00;99.90;;;;;;5112257;28;20167;-75
2020/12/06 11:56:19;;;;;;;0.45;0.45;;;5.00;99.90;;;;;;5112264;28;20631;-77
2020/12/06 11:58:45;;;;;;;1.77;1.73;;;5.10;99.90;;;;;;5112066;28;20646;-76
2020/12/06 12:01:11;;;;;;;2.33;2.17;;;5.10;99.90;;;;;;5110571;28;20171;-76
2020/12/06 12:03:37;;;;;;;2.15;2.05;;;5.20;99.90;;;;;;5111828;28;20191;-77
2020/12/06 12:06:03;;;;;;;3.90;1.95;;;5.20;99.90;;;;;;5112019;28;20659;-75
2020/12/06 12:08:29;;;;;;;0.90;0.90;;;5.20;99.90;;;;;;5111974;28;20630;-75
2020/12/06 12:10:55;;;;;;;2.00;1.90;;;5.30;99.90;;;;;;5110671;28;20222;-75
2020/12/06 12:13:21;;;;;;;3.53;1.50;;;5.20;99.90;;;;;;5111949;28;20180;-76
2020/12/06 12:15:47;;;;;;;2.13;2.03;;;5.20;99.90;;;;;;5111852;28;20163;-75
2020/12/06 12:18:13;;;;;;;5.50;4.97;;;5.20;99.90;;;;;;5110392;28;20182;-76
2020/12/06 12:20:39;;;;;;;2.65;2.45;;;5.00;99.90;;;;;;5111690;28;20198;-75
2020/12/06 12:23:05;;;;;;;2.90;2.70;;;4.90;99.90;;;;;;5111422;28;20206;-76
2020/12/06 12:25:31;;;;;;;4.90;4.55;;;4.90;99.90;;;;;;5111784;28;20227;-75
2020/12/06 12:27:57;;;;;;;10.13;3.63;;;4.80;99.90;;;;;;5111159;28;20179;-76
2020/12/06 12:30:23;;;;;;;1.75;1.70;;;4.80;99.90;;;;;;5110109;28;20191;-75
2020/12/06 12:32:48;;;;;;;2.50;2.15;;;4.90;99.90;;;;;;5111530;28;20155;-76
2020/12/06 12:35:14;;;;;;;1.52;1.50;;;4.80;99.90;;;;;;5111564;28;20168;-75
2020/12/06 12:37:40;;;;;;;1.52;1.48;;;4.70;99.90;;;;;;5111411;28;20155;-76
2020/12/06 12:40:06;;;;;;;1.13;1.02;;;4.70;99.90;;;;;;5111246;28;20286;-76
2020/12/06 12:42:32;;;;;;;2.88;2.08;;;4.80;99.90;;;;;;5111368;28;20158;-75
2020/12/06 12:44:58;;;;;;;2.03;1.92;;;4.90;99.90;;;;;;5111062;28;20187;-75
2020/12/06 12:47:24;;;;;;;9.32;3.53;;;5.00;99.90;;;;;;5111243;28;20223;-75
2020/12/06 12:49:50;;;;;;;1.35;1.35;;;5.00;99.90;;;;;;5109667;28;20199;-75
2020/12/06 12:52:17;;;;;;;3.30;2.05;;;4.90;99.90;;;;;;5111088;28;20219;-75
2020/12/06 12:54:43;;;;;;;1.25;1.15;;;4.90;99.90;;;;;;5110948;28;20171;-76
2020/12/06 12:57:09;;;;;;;3.33;2.97;;;4.80;99.90;;;;;;5110953;28;20173;-75
2020/12/06 12:59:35;;;;;;;1.58;1.48;;;4.70;99.90;;;;;;5109631;28;20626;-75